sensor_id;sensor_type;location;lat;lon;timestamp;pressure;altitude;pressure_sealevel;temperature;humidity
54369;BME280;40266;52.434;17.056;2022-08-21T00:01:26;100302.27;;;18.79;100.00
54369;BME280;40266;52.434;17.056;2022-08-21T00:04:11;100296.46;;;18.75;100.00
54369;BME280;40266;52.434;17.056;2022-08-21T00:07:07;100296.41;;;18.72;100.00
54369;BME280;40266;52.434;17.056;2022-08-21T00:09:52;100300.63;;;18.70;100.00
54369;BME280;40266;52.434;17.056;2022-08-21T00:12:47;100302.97;;;18.66;100.00
54369;BME280;40266;52.434;17.056;2022-08-21T00:15:36;100298.27;;;18.65;100.00
54369;BME280;40266;52.434;17.056;2022-08-21T00:18:20;100299.65;;;18.62;100.00
54369;BME280;40266;52.434;17.056;2022-08-21T00:21:08;100302.29;;;18.60;100.00
54369;BME280;40266;52.434;17.056;2022-08-21T00:23:59;100303.91;;;18.59;100.00
54369;BME280;40266;52.434;17.056;2022-08-21T00:26:48;100297.73;;;18.56;100.00
54369;BME280;40266;52.434;17.056;2022-08-21T00:29:32;100292.61;;;18.55;100.00
54369;BME280;40266;52.434;17.056;2022-08-21T00:32:37;100292.67;;;18.54;100.00
54369;BME280;40266;52.434;17.056;2022-08-21T00:35:33;100299.34;;;18.52;100.00
54369;BME280;40266;52.434;17.056;2022-08-21T00:38:18;100305.83;;;18.50;100.00
54369;BME280;40266;52.434;17.056;2022-08-21T00:41:07;100305.08;;;18.48;100.00
54369;BME280;40266;52.434;17.056;2022-08-21T00:44:15;100303.05;;;18.43;100.00
54369;BME280;40266;52.434;17.056;2022-08-21T00:46:58;100303.99;;;18.35;100.00
54369;BME280;40266;52.434;17.056;2022-08-21T00:49:45;100302.48;;;18.31;100.00
54369;BME280;40266;52.434;17.056;2022-08-21T00:52:30;100299.56;;;18.26;100.00
54369;BME280;40266;52.434;17.056;2022-08-21T00:55:24;100303.11;;;18.19;100.00
54369;BME280;40266;52.434;17.056;2022-08-21T00:58:16;100303.69;;;18.15;100.00
54369;BME280;40266;52.434;17.056;2022-08-21T01:01:02;100298.36;;;18.12;100.00
54369;BME280;40266;52.434;17.056;2022-08-21T01:03:50;100295.46;;;18.11;100.00
54369;BME280;40266;52.434;17.056;2022-08-21T01:06:44;100293.19;;;18.10;100.00
54369;BME280;40266;52.434;17.056;2022-08-21T01:09:36;100294.06;;;18.07;100.00
54369;BME280;40266;52.434;17.056;2022-08-21T01:12:34;100296.76;;;18.03;100.00
54369;BME280;40266;52.434;17.056;2022-08-21T01:15:21;100289.40;;;17.99;100.00
54369;BME280;40266;52.434;17.056;2022-08-21T01:18:07;100289.18;;;17.96;100.00
54369;BME280;40266;52.434;17.056;2022-08-21T01:21:10;100284.69;;;17.94;100.00
54369;BME280;40266;52.434;17.056;2022-08-21T01:24:00;100285.64;;;17.93;100.00
54369;BME280;40266;52.434;17.056;2022-08-21T01:26:51;100280.50;;;17.90;100.00
54369;BME280;40266;52.434;17.056;2022-08-21T01:29:53;100280.02;;;17.89;100.00
54369;BME280;40266;52.434;17.056;2022-08-21T01:32:40;100285.42;;;17.87;100.00
54369;BME280;40266;52.434;17.056;2022-08-21T01:35:46;100281.85;;;17.85;100.00
54369;BME280;40266;52.434;17.056;2022-08-21T01:38:32;100279.48;;;17.82;100.00
54369;BME280;40266;52.434;17.056;2022-08-21T01:41:24;100278.55;;;17.80;100.00
54369;BME280;40266;52.434;17.056;2022-08-21T01:44:10;100280.49;;;17.76;100.00
54369;BME280;40266;52.434;17.056;2022-08-21T01:47:00;100280.75;;;17.75;100.00
54369;BME280;40266;52.434;17.056;2022-08-21T01:49:53;100277.96;;;17.74;100.00
54369;BME280;40266;52.434;17.056;2022-08-21T01:52:48;100273.07;;;17.73;100.00
54369;BME280;40266;52.434;17.056;2022-08-21T01:55:32;100268.68;;;17.73;100.00
54369;BME280;40266;52.434;17.056;2022-08-21T01:58:17;100270.38;;;17.70;100.00
54369;BME280;40266;52.434;17.056;2022-08-21T02:01:01;100270.90;;;17.71;100.00
54369;BME280;40266;52.434;17.056;2022-08-21T02:03:56;100266.15;;;17.71;100.00
54369;BME280;40266;52.434;17.056;2022-08-21T02:06:42;100266.20;;;17.70;100.00
54369;BME280;40266;52.434;17.056;2022-08-21T02:09:38;100261.27;;;17.69;100.00
54369;BME280;40266;52.434;17.056;2022-08-21T02:12:24;100259.55;;;17.68;100.00
54369;BME280;40266;52.434;17.056;2022-08-21T02:15:12;100256.61;;;17.67;100.00
54369;BME280;40266;52.434;17.056;2022-08-21T02:18:00;100253.96;;;17.67;100.00
54369;BME280;40266;52.434;17.056;2022-08-21T02:20:46;100250.62;;;17.67;100.00
54369;BME280;40266;52.434;17.056;2022-08-21T02:23:29;100254.55;;;17.66;100.00
54369;BME280;40266;52.434;17.056;2022-08-21T02:26:15;100251.66;;;17.64;100.00
54369;BME280;40266;52.434;17.056;2022-08-21T02:28:59;100250.44;;;17.64;100.00
54369;BME280;40266;52.434;17.056;2022-08-21T02:31:51;100245.67;;;17.64;100.00
54369;BME280;40266;52.434;17.056;2022-08-21T02:34:37;100241.91;;;17.65;100.00
54369;BME280;40266;52.434;17.056;2022-08-21T02:37:20;100235.80;;;17.63;100.00
54369;BME280;40266;52.434;17.056;2022-08-21T02:40:07;100239.02;;;17.63;100.00
54369;BME280;40266;52.434;17.056;2022-08-21T02:42:55;100231.48;;;17.62;100.00
54369;BME280;40266;52.434;17.056;2022-08-21T02:45:49;100226.67;;;17.59;100.00
54369;BME280;40266;52.434;17.056;2022-08-21T02:48:35;100227.81;;;17.58;100.00
54369;BME280;40266;52.434;17.056;2022-08-21T02:51:22;100230.17;;;17.56;100.00
54369;BME280;40266;52.434;17.056;2022-08-21T02:54:10;100230.71;;;17.56;100.00
54369;BME280;40266;52.434;17.056;2022-08-21T02:57:14;100236.70;;;17.57;100.00
54369;BME280;40266;52.434;17.056;2022-08-21T03:00:00;100236.92;;;17.56;100.00
54369;BME280;40266;52.434;17.056;2022-08-21T03:02:50;100237.79;;;17.56;100.00
54369;BME280;40266;52.434;17.056;2022-08-21T03:05:35;100242.91;;;17.56;100.00
54369;BME280;40266;52.434;17.056;2022-08-21T03:08:24;100244.92;;;17.55;100.00
54369;BME280;40266;52.434;17.056;2022-08-21T03:11:15;100249.69;;;17.55;100.00
54369;BME280;40266;52.434;17.056;2022-08-21T03:14:11;100250.38;;;17.55;100.00
54369;BME280;40266;52.434;17.056;2022-08-21T03:16:57;100251.45;;;17.55;100.00
54369;BME280;40266;52.434;17.056;2022-08-21T03:19:54;100256.23;;;17.54;100.00
54369;BME280;40266;52.434;17.056;2022-08-21T03:22:42;100259.02;;;17.52;100.00
54369;BME280;40266;52.434;17.056;2022-08-21T03:25:38;100260.70;;;17.49;100.00
54369;BME280;40266;52.434;17.056;2022-08-21T03:28:26;100259.12;;;17.46;100.00
54369;BME280;40266;52.434;17.056;2022-08-21T03:31:09;100262.27;;;17.44;100.00
54369;BME280;40266;52.434;17.056;2022-08-21T03:33:53;100269.16;;;17.40;100.00
54369;BME280;40266;52.434;17.056;2022-08-21T03:36:40;100268.67;;;17.36;100.00
54369;BME280;40266;52.434;17.056;2022-08-21T03:39:27;100269.65;;;17.34;100.00
54369;BME280;40266;52.434;17.056;2022-08-21T03:42:13;100271.33;;;17.33;100.00
54369;BME280;40266;52.434;17.056;2022-08-21T03:45:03;100270.30;;;17.32;100.00
54369;BME280;40266;52.434;17.056;2022-08-21T03:47:53;100276.93;;;17.30;100.00
54369;BME280;40266;52.434;17.056;2022-08-21T03:50:42;100279.15;;;17.28;100.00
54369;BME280;40266;52.434;17.056;2022-08-21T03:53:26;100284.86;;;17.26;100.00
54369;BME280;40266;52.434;17.056;2022-08-21T03:56:12;100291.33;;;17.28;100.00
54369;BME280;40266;52.434;17.056;2022-08-21T03:58:58;100290.36;;;17.26;100.00
54369;BME280;40266;52.434;17.056;2022-08-21T04:01:54;100297.05;;;17.26;100.00
54369;BME280;40266;52.434;17.056;2022-08-21T04:04:38;100297.25;;;17.26;100.00
54369;BME280;40266;52.434;17.056;2022-08-21T04:07:21;100295.48;;;17.26;100.00
54369;BME280;40266;52.434;17.056;2022-08-21T04:10:06;100294.77;;;17.26;100.00
54369;BME280;40266;52.434;17.056;2022-08-21T04:12:53;100294.02;;;17.27;100.00
54369;BME280;40266;52.434;17.056;2022-08-21T04:15:36;100296.80;;;17.28;100.00
54369;BME280;40266;52.434;17.056;2022-08-21T04:18:20;100300.95;;;17.29;100.00
54369;BME280;40266;52.434;17.056;2022-08-21T04:21:10;100301.83;;;17.29;100.00
54369;BME280;40266;52.434;17.056;2022-08-21T04:23:55;100303.56;;;17.30;100.00
54369;BME280;40266;52.434;17.056;2022-08-21T04:26:41;100302.66;;;17.30;100.00
54369;BME280;40266;52.434;17.056;2022-08-21T04:29:26;100307.23;;;17.31;100.00
54369;BME280;40266;52.434;17.056;2022-08-21T04:32:11;100309.58;;;17.30;100.00
54369;BME280;40266;52.434;17.056;2022-08-21T04:35:01;100314.23;;;17.29;100.00
54369;BME280;40266;52.434;17.056;2022-08-21T04:37:48;100314.25;;;17.28;100.00
54369;BME280;40266;52.434;17.056;2022-08-21T04:40:32;100316.19;;;17.28;100.00
54369;BME280;40266;52.434;17.056;2022-08-21T04:43:15;100311.23;;;17.28;100.00
54369;BME280;40266;52.434;17.056;2022-08-21T04:46:00;100308.65;;;17.27;100.00
54369;BME280;40266;52.434;17.056;2022-08-21T04:48:43;100309.02;;;17.27;100.00
54369;BME280;40266;52.434;17.056;2022-08-21T04:51:32;100308.83;;;17.27;100.00
54369;BME280;40266;52.434;17.056;2022-08-21T04:54:20;100317.79;;;17.28;100.00
54369;BME280;40266;52.434;17.056;2022-08-21T04:57:08;100325.23;;;17.27;100.00
54369;BME280;40266;52.434;17.056;2022-08-21T04:59:53;100331.81;;;17.26;100.00
54369;BME280;40266;52.434;17.056;2022-08-21T05:02:38;100325.27;;;17.26;100.00
54369;BME280;40266;52.434;17.056;2022-08-21T05:05:22;100331.88;;;17.29;100.00
54369;BME280;40266;52.434;17.056;2022-08-21T05:08:07;100334.42;;;17.30;100.00
54369;BME280;40266;52.434;17.056;2022-08-21T05:10:52;100335.75;;;17.32;100.00
54369;BME280;40266;52.434;17.056;2022-08-21T05:13:42;100345.40;;;17.34;100.00
54369;BME280;40266;52.434;17.056;2022-08-21T05:16:25;100344.65;;;17.35;100.00
54369;BME280;40266;52.434;17.056;2022-08-21T05:19:20;100347.48;;;17.34;100.00
54369;BME280;40266;52.434;17.056;2022-08-21T05:22:03;100348.67;;;17.35;100.00
54369;BME280;40266;52.434;17.056;2022-08-21T05:24:46;100347.45;;;17.35;100.00
54369;BME280;40266;52.434;17.056;2022-08-21T05:27:30;100349.05;;;17.35;100.00
54369;BME280;40266;52.434;17.056;2022-08-21T05:30:14;100351.27;;;17.36;100.00
54369;BME280;40266;52.434;17.056;2022-08-21T05:32:59;100345.81;;;17.36;100.00
54369;BME280;40266;52.434;17.056;2022-08-21T05:35:48;100344.39;;;17.36;100.00
54369;BME280;40266;52.434;17.056;2022-08-21T05:38:34;100339.58;;;17.37;100.00
54369;BME280;40266;52.434;17.056;2022-08-21T05:41:17;100338.54;;;17.37;100.00
54369;BME280;40266;52.434;17.056;2022-08-21T05:44:01;100336.73;;;17.37;100.00
54369;BME280;40266;52.434;17.056;2022-08-21T05:46:52;100336.91;;;17.37;100.00
54369;BME280;40266;52.434;17.056;2022-08-21T05:49:35;100336.38;;;17.38;100.00
54369;BME280;40266;52.434;17.056;2022-08-21T05:52:20;100333.30;;;17.39;100.00
54369;BME280;40266;52.434;17.056;2022-08-21T05:55:07;100328.32;;;17.40;100.00
54369;BME280;40266;52.434;17.056;2022-08-21T05:57:50;100322.77;;;17.41;100.00
54369;BME280;40266;52.434;17.056;2022-08-21T06:00:35;100321.20;;;17.41;100.00
54369;BME280;40266;52.434;17.056;2022-08-21T06:03:31;100318.65;;;17.39;100.00
54369;BME280;40266;52.434;17.056;2022-08-21T06:06:15;100317.02;;;17.40;100.00
54369;BME280;40266;52.434;17.056;2022-08-21T06:08:58;100314.22;;;17.39;100.00
54369;BME280;40266;52.434;17.056;2022-08-21T06:11:41;100311.21;;;17.39;100.00
54369;BME280;40266;52.434;17.056;2022-08-21T06:14:30;100310.13;;;17.40;100.00
54369;BME280;40266;52.434;17.056;2022-08-21T06:17:14;100301.56;;;17.38;100.00
54369;BME280;40266;52.434;17.056;2022-08-21T06:19:58;100302.98;;;17.38;100.00
54369;BME280;40266;52.434;17.056;2022-08-21T06:22:41;100304.55;;;17.38;100.00
54369;BME280;40266;52.434;17.056;2022-08-21T06:25:24;100306.58;;;17.40;100.00
54369;BME280;40266;52.434;17.056;2022-08-21T06:28:10;100307.23;;;17.41;100.00
54369;BME280;40266;52.434;17.056;2022-08-21T06:30:56;100300.11;;;17.43;100.00
54369;BME280;40266;52.434;17.056;2022-08-21T06:33:42;100303.73;;;17.44;100.00
54369;BME280;40266;52.434;17.056;2022-08-21T06:36:35;100303.65;;;17.45;100.00
54369;BME280;40266;52.434;17.056;2022-08-21T06:39:18;100310.58;;;17.48;100.00
54369;BME280;40266;52.434;17.056;2022-08-21T06:42:16;100311.83;;;17.51;100.00
54369;BME280;40266;52.434;17.056;2022-08-21T06:44:59;100309.35;;;17.55;100.00
54369;BME280;40266;52.434;17.056;2022-08-21T06:47:45;100315.82;;;17.60;100.00
54369;BME280;40266;52.434;17.056;2022-08-21T06:50:29;100318.92;;;17.61;100.00
54369;BME280;40266;52.434;17.056;2022-08-21T06:53:15;100322.63;;;17.64;100.00
54369;BME280;40266;52.434;17.056;2022-08-21T06:55:59;100326.83;;;17.65;100.00
54369;BME280;40266;52.434;17.056;2022-08-21T06:58:42;100334.64;;;17.68;100.00
54369;BME280;40266;52.434;17.056;2022-08-21T07:01:26;100340.35;;;17.69;100.00
54369;BME280;40266;52.434;17.056;2022-08-21T07:04:15;100348.63;;;17.70;100.00
54369;BME280;40266;52.434;17.056;2022-08-21T07:09:59;100354.77;;;17.75;100.00
54369;BME280;40266;52.434;17.056;2022-08-21T07:12:45;100348.06;;;17.78;100.00
54369;BME280;40266;52.434;17.056;2022-08-21T07:15:31;100343.90;;;17.79;100.00
54369;BME280;40266;52.434;17.056;2022-08-21T07:18:17;100344.74;;;17.81;100.00
54369;BME280;40266;52.434;17.056;2022-08-21T07:21:02;100343.45;;;17.82;100.00
54369;BME280;40266;52.434;17.056;2022-08-21T07:23:49;100343.28;;;17.85;100.00
54369;BME280;40266;52.434;17.056;2022-08-21T07:26:34;100344.77;;;17.87;100.00
54369;BME280;40266;52.434;17.056;2022-08-21T07:29:20;100345.95;;;17.91;100.00
54369;BME280;40266;52.434;17.056;2022-08-21T07:32:04;100347.20;;;17.95;100.00
54369;BME280;40266;52.434;17.056;2022-08-21T07:34:47;100342.58;;;17.99;100.00
54369;BME280;40266;52.434;17.056;2022-08-21T07:37:30;100340.88;;;18.01;100.00
54369;BME280;40266;52.434;17.056;2022-08-21T07:40:14;100335.22;;;18.01;100.00
54369;BME280;40266;52.434;17.056;2022-08-21T07:43:02;100337.95;;;18.06;100.00
54369;BME280;40266;52.434;17.056;2022-08-21T07:45:45;100338.05;;;18.07;100.00
54369;BME280;40266;52.434;17.056;2022-08-21T07:48:28;100343.97;;;18.06;100.00
54369;BME280;40266;52.434;17.056;2022-08-21T07:51:13;100345.03;;;18.09;100.00
54369;BME280;40266;52.434;17.056;2022-08-21T07:53:58;100344.67;;;18.12;100.00
54369;BME280;40266;52.434;17.056;2022-08-21T07:56:44;100344.16;;;18.15;100.00
54369;BME280;40266;52.434;17.056;2022-08-21T07:59:28;100348.39;;;18.19;100.00
54369;BME280;40266;52.434;17.056;2022-08-21T08:02:23;100351.73;;;18.22;100.00
54369;BME280;40266;52.434;17.056;2022-08-21T08:05:09;100353.33;;;18.28;100.00
54369;BME280;40266;52.434;17.056;2022-08-21T08:07:53;100352.88;;;18.33;100.00
54369;BME280;40266;52.434;17.056;2022-08-21T08:10:38;100350.02;;;18.34;100.00
54369;BME280;40266;52.434;17.056;2022-08-21T08:13:38;100355.83;;;18.31;100.00
54369;BME280;40266;52.434;17.056;2022-08-21T08:16:21;100352.35;;;18.30;100.00
54369;BME280;40266;52.434;17.056;2022-08-21T08:19:04;100351.71;;;18.32;100.00
54369;BME280;40266;52.434;17.056;2022-08-21T08:21:47;100354.44;;;18.34;100.00
54369;BME280;40266;52.434;17.056;2022-08-21T08:24:41;100354.34;;;18.33;100.00
54369;BME280;40266;52.434;17.056;2022-08-21T08:27:24;100367.29;;;18.32;100.00
54369;BME280;40266;52.434;17.056;2022-08-21T08:30:11;100366.52;;;18.29;100.00
54369;BME280;40266;52.434;17.056;2022-08-21T08:32:55;100367.01;;;18.27;100.00
54369;BME280;40266;52.434;17.056;2022-08-21T08:35:50;100371.86;;;18.23;100.00
54369;BME280;40266;52.434;17.056;2022-08-21T08:38:36;100379.33;;;18.22;100.00
54369;BME280;40266;52.434;17.056;2022-08-21T08:41:21;100383.03;;;18.19;100.00
54369;BME280;40266;52.434;17.056;2022-08-21T08:44:13;100380.05;;;18.15;100.00
54369;BME280;40266;52.434;17.056;2022-08-21T08:46:57;100377.02;;;18.12;100.00
54369;BME280;40266;52.434;17.056;2022-08-21T08:50:10;100372.24;;;18.12;100.00
54369;BME280;40266;52.434;17.056;2022-08-21T08:53:02;100369.80;;;18.11;100.00
54369;BME280;40266;52.434;17.056;2022-08-21T08:55:48;100362.52;;;18.13;100.00
54369;BME280;40266;52.434;17.056;2022-08-21T08:58:39;100364.98;;;18.13;100.00
54369;BME280;40266;52.434;17.056;2022-08-21T09:01:23;100366.00;;;18.10;100.00
54369;BME280;40266;52.434;17.056;2022-08-21T09:04:10;100369.14;;;18.11;100.00
54369;BME280;40266;52.434;17.056;2022-08-21T09:10:26;100369.98;;;18.11;100.00
54369;BME280;40266;52.434;17.056;2022-08-21T09:13:26;100371.48;;;18.10;100.00
54369;BME280;40266;52.434;17.056;2022-08-21T09:26:07;100383.39;;;18.02;100.00
54369;BME280;40266;52.434;17.056;2022-08-21T09:28:57;100381.84;;;18.01;100.00
54369;BME280;40266;52.434;17.056;2022-08-21T09:31:43;100376.21;;;18.01;100.00
54369;BME280;40266;52.434;17.056;2022-08-21T09:34:31;100378.40;;;18.03;100.00
54369;BME280;40266;52.434;17.056;2022-08-21T09:37:18;100376.15;;;18.02;100.00
54369;BME280;40266;52.434;17.056;2022-08-21T09:40:23;100381.31;;;18.04;100.00
54369;BME280;40266;52.434;17.056;2022-08-21T09:46:07;100385.09;;;18.09;100.00
54369;BME280;40266;52.434;17.056;2022-08-21T09:48:53;100384.63;;;18.12;100.00
54369;BME280;40266;52.434;17.056;2022-08-21T09:51:37;100380.23;;;18.11;100.00
54369;BME280;40266;52.434;17.056;2022-08-21T09:54:34;100382.17;;;18.12;100.00
54369;BME280;40266;52.434;17.056;2022-08-21T09:57:24;100379.01;;;18.14;100.00
54369;BME280;40266;52.434;17.056;2022-08-21T10:00:44;100377.50;;;18.16;100.00
54369;BME280;40266;52.434;17.056;2022-08-21T10:03:33;100384.11;;;18.18;100.00
54369;BME280;40266;52.434;17.056;2022-08-21T10:06:27;100392.57;;;18.19;100.00
54369;BME280;40266;52.434;17.056;2022-08-21T10:09:17;100399.05;;;18.20;100.00
54369;BME280;40266;52.434;17.056;2022-08-21T10:20:49;100415.77;;;18.11;100.00
54369;BME280;40266;52.434;17.056;2022-08-21T10:24:02;100412.65;;;18.10;100.00
54369;BME280;40266;52.434;17.056;2022-08-21T10:27:02;100414.77;;;18.10;100.00
54369;BME280;40266;52.434;17.056;2022-08-21T10:29:56;100409.74;;;18.11;100.00
54369;BME280;40266;52.434;17.056;2022-08-21T10:32:47;100410.02;;;18.13;100.00
54369;BME280;40266;52.434;17.056;2022-08-21T10:35:48;100409.40;;;18.15;100.00
54369;BME280;40266;52.434;17.056;2022-08-21T10:38:55;100411.30;;;18.16;100.00
54369;BME280;40266;52.434;17.056;2022-08-21T10:42:21;100410.45;;;18.19;100.00
54369;BME280;40266;52.434;17.056;2022-08-21T10:45:20;100402.42;;;18.23;100.00
54369;BME280;40266;52.434;17.056;2022-08-21T10:48:25;100398.03;;;18.26;100.00
54369;BME280;40266;52.434;17.056;2022-08-21T10:54:40;100391.02;;;18.31;100.00
54369;BME280;40266;52.434;17.056;2022-08-21T11:00:29;100396.42;;;18.40;100.00
54369;BME280;40266;52.434;17.056;2022-08-21T11:03:25;100395.98;;;18.44;100.00
54369;BME280;40266;52.434;17.056;2022-08-21T11:06:25;100394.64;;;18.46;100.00
54369;BME280;40266;52.434;17.056;2022-08-21T11:09:19;100389.69;;;18.49;100.00
54369;BME280;40266;52.434;17.056;2022-08-21T11:12:13;100385.75;;;18.57;100.00
54369;BME280;40266;52.434;17.056;2022-08-21T11:15:30;100381.11;;;18.64;100.00
54369;BME280;40266;52.434;17.056;2022-08-21T11:18:34;100376.43;;;18.65;100.00
54369;BME280;40266;52.434;17.056;2022-08-21T11:24:42;100359.70;;;18.70;100.00
54369;BME280;40266;52.434;17.056;2022-08-21T11:27:45;100361.05;;;18.74;100.00
54369;BME280;40266;52.434;17.056;2022-08-21T11:30:33;100356.27;;;18.78;100.00
54369;BME280;40266;52.434;17.056;2022-08-21T11:36:35;100351.62;;;18.86;100.00
54369;BME280;40266;52.434;17.056;2022-08-21T11:39:52;100343.08;;;18.84;100.00
54369;BME280;40266;52.434;17.056;2022-08-21T11:45:54;100327.95;;;18.82;100.00
54369;BME280;40266;52.434;17.056;2022-08-21T11:49:20;100341.73;;;18.85;100.00
54369;BME280;40266;52.434;17.056;2022-08-21T11:52:36;100349.40;;;18.84;100.00
54369;BME280;40266;52.434;17.056;2022-08-21T11:55:44;100351.97;;;18.82;100.00
54369;BME280;40266;52.434;17.056;2022-08-21T11:58:49;100358.52;;;18.86;100.00
54369;BME280;40266;52.434;17.056;2022-08-21T12:01:41;100352.20;;;18.85;100.00
54369;BME280;40266;52.434;17.056;2022-08-21T12:04:42;100354.60;;;18.83;100.00
54369;BME280;40266;52.434;17.056;2022-08-21T12:10:38;100362.13;;;18.78;100.00
54369;BME280;40266;52.434;17.056;2022-08-21T12:13:26;100366.77;;;18.77;100.00
54369;BME280;40266;52.434;17.056;2022-08-21T12:16:34;100367.84;;;18.73;100.00
54369;BME280;40266;52.434;17.056;2022-08-21T12:24:49;100380.83;;;18.72;100.00
54369;BME280;40266;52.434;17.056;2022-08-21T12:27:52;100383.19;;;18.71;100.00
54369;BME280;40266;52.434;17.056;2022-08-21T12:30:41;100387.92;;;18.68;100.00
54369;BME280;40266;52.434;17.056;2022-08-21T12:33:35;100391.09;;;18.71;100.00
54369;BME280;40266;52.434;17.056;2022-08-21T12:36:28;100394.26;;;18.75;100.00
54369;BME280;40266;52.434;17.056;2022-08-21T12:39:23;100394.82;;;18.75;100.00
54369;BME280;40266;52.434;17.056;2022-08-21T12:42:25;100395.10;;;18.72;100.00
54369;BME280;40266;52.434;17.056;2022-08-21T12:45:28;100398.66;;;18.69;100.00
54369;BME280;40266;52.434;17.056;2022-08-21T12:48:33;100395.46;;;18.66;100.00
54369;BME280;40266;52.434;17.056;2022-08-21T12:54:30;100397.36;;;18.67;100.00
54369;BME280;40266;52.434;17.056;2022-08-21T12:57:23;100405.58;;;18.63;100.00
54369;BME280;40266;52.434;17.056;2022-08-21T13:00:12;100403.27;;;18.56;100.00
54369;BME280;40266;52.434;17.056;2022-08-21T13:02:56;100401.89;;;18.55;100.00
54369;BME280;40266;52.434;17.056;2022-08-21T13:05:40;100402.15;;;18.54;100.00
54369;BME280;40266;52.434;17.056;2022-08-21T13:08:36;100404.64;;;18.54;100.00
54369;BME280;40266;52.434;17.056;2022-08-21T13:11:27;100403.38;;;18.54;100.00
54369;BME280;40266;52.434;17.056;2022-08-21T13:14:31;100403.92;;;18.54;100.00
54369;BME280;40266;52.434;17.056;2022-08-21T13:17:22;100406.23;;;18.54;100.00
54369;BME280;40266;52.434;17.056;2022-08-21T13:20:20;100408.41;;;18.53;100.00
54369;BME280;40266;52.434;17.056;2022-08-21T13:23:19;100414.40;;;18.50;100.00
54369;BME280;40266;52.434;17.056;2022-08-21T13:26:19;100414.34;;;18.48;100.00
54369;BME280;40266;52.434;17.056;2022-08-21T13:29:29;100420.30;;;18.45;100.00
54369;BME280;40266;52.434;17.056;2022-08-21T13:32:21;100419.37;;;18.43;100.00
54369;BME280;40266;52.434;17.056;2022-08-21T13:35:17;100423.59;;;18.44;100.00
54369;BME280;40266;52.434;17.056;2022-08-21T13:38:03;100426.77;;;18.44;100.00
54369;BME280;40266;52.434;17.056;2022-08-21T13:41:05;100424.92;;;18.42;100.00
54369;BME280;40266;52.434;17.056;2022-08-21T13:44:24;100428.52;;;18.41;100.00
54369;BME280;40266;52.434;17.056;2022-08-21T13:47:11;100428.44;;;18.39;100.00
54369;BME280;40266;52.434;17.056;2022-08-21T13:49:56;100432.92;;;18.34;100.00
54369;BME280;40266;52.434;17.056;2022-08-21T13:52:48;100436.36;;;18.33;100.00
54369;BME280;40266;52.434;17.056;2022-08-21T13:55:41;100438.77;;;18.31;100.00
54369;BME280;40266;52.434;17.056;2022-08-21T13:58:31;100447.73;;;18.25;100.00
54369;BME280;40266;52.434;17.056;2022-08-21T14:06:56;100451.73;;;18.02;100.00
54369;BME280;40266;52.434;17.056;2022-08-21T14:10:05;100449.66;;;17.98;100.00
54369;BME280;40266;52.434;17.056;2022-08-21T14:12:55;100447.73;;;17.95;100.00
54369;BME280;40266;52.434;17.056;2022-08-21T14:15:56;100453.38;;;17.91;100.00
54369;BME280;40266;52.434;17.056;2022-08-21T14:21:48;100457.46;;;17.80;100.00
54369;BME280;40266;52.434;17.056;2022-08-21T14:24:39;100460.25;;;17.77;100.00
54369;BME280;40266;52.434;17.056;2022-08-21T14:27:22;100464.58;;;17.71;100.00
54369;BME280;40266;52.434;17.056;2022-08-21T14:30:16;100468.98;;;17.65;100.00
54369;BME280;40266;52.434;17.056;2022-08-21T14:33:02;100470.45;;;17.60;100.00
54369;BME280;40266;52.434;17.056;2022-08-21T14:35:45;100478.29;;;17.56;100.00
54369;BME280;40266;52.434;17.056;2022-08-21T14:38:37;100482.13;;;17.53;100.00
54369;BME280;40266;52.434;17.056;2022-08-21T14:41:24;100485.23;;;17.50;100.00
54369;BME280;40266;52.434;17.056;2022-08-21T14:44:19;100483.13;;;17.46;100.00
54369;BME280;40266;52.434;17.056;2022-08-21T14:47:25;100484.89;;;17.43;100.00
54369;BME280;40266;52.434;17.056;2022-08-21T14:50:12;100487.20;;;17.39;100.00
54369;BME280;40266;52.434;17.056;2022-08-21T14:52:58;100488.56;;;17.37;100.00
54369;BME280;40266;52.434;17.056;2022-08-21T14:55:44;100487.75;;;17.35;100.00
54369;BME280;40266;52.434;17.056;2022-08-21T14:58:50;100494.48;;;17.31;100.00
54369;BME280;40266;52.434;17.056;2022-08-21T15:01:36;100493.20;;;17.24;100.00
54369;BME280;40266;52.434;17.056;2022-08-21T15:04:20;100493.45;;;17.20;100.00
54369;BME280;40266;52.434;17.056;2022-08-21T15:07:24;100494.83;;;17.13;100.00
54369;BME280;40266;52.434;17.056;2022-08-21T15:10:19;100497.58;;;17.03;100.00
54369;BME280;40266;52.434;17.056;2022-08-21T15:13:06;100496.45;;;16.94;100.00
54369;BME280;40266;52.434;17.056;2022-08-21T15:16:10;100495.75;;;16.81;100.00
54369;BME280;40266;52.434;17.056;2022-08-21T15:18:57;100498.59;;;16.73;100.00
54369;BME280;40266;52.434;17.056;2022-08-21T15:21:53;100503.58;;;16.68;100.00
54369;BME280;40266;52.434;17.056;2022-08-21T15:24:38;100503.35;;;16.61;100.00
54369;BME280;40266;52.434;17.056;2022-08-21T15:27:32;100508.38;;;16.55;100.00
54369;BME280;40266;52.434;17.056;2022-08-21T15:30:23;100506.88;;;16.49;100.00
54369;BME280;40266;52.434;17.056;2022-08-21T15:33:18;100505.65;;;16.45;100.00